createdAt,value
2023-01-06T00:01:28.471Z,3.92
2023-01-06T00:04:00.266Z,3.78
2023-01-06T00:06:30.109Z,3.60
2023-01-06T00:09:00.144Z,3.42
2023-01-06T00:11:27.905Z,4.57
2023-01-06T00:13:57.028Z,3.97
2023-01-06T00:16:25.672Z,3.92
2023-01-06T00:19:00.941Z,4.12
2023-01-06T00:21:29.421Z,4.00
2023-01-06T00:23:57.802Z,4.07
2023-01-06T00:26:25.687Z,3.62
2023-01-06T00:28:57.434Z,4.87
2023-01-06T00:31:25.270Z,4.40
2023-01-06T00:33:53.135Z,3.70
2023-01-06T00:36:22.699Z,4.05
2023-01-06T00:38:51.982Z,3.80
2023-01-06T00:41:38.278Z,4.15
2023-01-06T00:44:06.156Z,4.10
2023-01-06T00:46:35.461Z,4.00
2023-01-06T00:49:06.214Z,3.97
2023-01-06T00:51:35.844Z,4.00
2023-01-06T00:54:03.732Z,3.87
2023-01-06T00:56:31.532Z,4.07
2023-01-06T00:58:59.389Z,3.80
2023-01-06T01:01:27.183Z,3.58
2023-01-06T01:03:55.081Z,3.50
2023-01-06T01:06:22.727Z,4.00
2023-01-06T01:08:54.876Z,3.92
2023-01-06T01:11:41.595Z,4.20
2023-01-06T01:14:09.985Z,3.53
2023-01-06T01:16:37.731Z,4.05
2023-01-06T01:19:05.855Z,4.07
2023-01-06T01:21:33.602Z,3.30
2023-01-06T01:24:01.241Z,4.00
2023-01-06T01:26:28.945Z,4.03
2023-01-06T01:28:56.616Z,4.12
2023-01-06T01:31:24.318Z,4.30
2023-01-06T01:33:52.094Z,4.47
2023-01-06T01:36:20.755Z,4.93
2023-01-06T01:38:48.576Z,4.10
2023-01-06T01:41:20.768Z,4.75
2023-01-06T01:43:50.201Z,4.40
2023-01-06T01:46:22.938Z,4.40
2023-01-06T01:48:52.276Z,4.43
2023-01-06T01:51:25.488Z,4.68
2023-01-06T01:53:55.888Z,4.50
2023-01-06T01:56:27.863Z,4.93
2023-01-06T01:59:01.456Z,4.57
2023-01-06T02:01:29.745Z,4.85
2023-01-06T02:03:57.498Z,4.25
2023-01-06T02:06:27.021Z,5.20
2023-01-06T02:09:30.751Z,4.95
2023-01-06T02:11:59.271Z,4.80
2023-01-06T02:14:29.149Z,5.35
2023-01-06T02:17:05.840Z,5.10
2023-01-06T02:20:04.354Z,5.10
2023-01-06T02:22:47.143Z,4.00
2023-01-06T02:25:52.165Z,3.70
2023-01-06T02:28:58.139Z,3.72
2023-01-06T02:31:53.352Z,4.12
2023-01-06T02:34:26.902Z,5.15
2023-01-06T02:37:24.586Z,5.22
2023-01-06T02:40:01.062Z,6.65
2023-01-06T02:42:56.367Z,6.55
2023-01-06T02:45:54.716Z,6.53
2023-01-06T02:49:00.832Z,10.15
2023-01-06T02:51:38.692Z,4.75
2023-01-06T02:54:27.268Z,6.93
2023-01-06T02:57:19.574Z,4.45
2023-01-06T03:00:00.454Z,5.85
2023-01-06T03:02:32.161Z,6.37
2023-01-06T03:05:02.671Z,6.62
2023-01-06T03:07:32.888Z,8.95
2023-01-06T03:10:02.910Z,7.70
2023-01-06T03:12:39.243Z,9.07
2023-01-06T03:15:07.682Z,6.28
2023-01-06T03:17:35.577Z,5.82
2023-01-06T03:20:03.320Z,5.05
2023-01-06T03:22:32.512Z,5.05
2023-01-06T03:25:01.920Z,5.87
2023-01-06T03:27:29.584Z,5.07
2023-01-06T03:29:57.539Z,5.55
2023-01-06T03:32:39.633Z,4.78
2023-01-06T03:35:32.166Z,4.60
2023-01-06T03:38:21.793Z,3.95
2023-01-06T03:41:50.483Z,4.37
2023-01-06T03:44:41.197Z,4.15
2023-01-06T03:47:17.833Z,3.92
2023-01-06T03:49:55.693Z,4.28
2023-01-06T03:52:33.075Z,4.28
2023-01-06T03:55:15.929Z,3.78
2023-01-06T03:57:47.446Z,4.20
2023-01-06T04:00:25.730Z,4.40
2023-01-06T04:02:53.581Z,3.97
2023-01-06T04:05:24.507Z,4.37
2023-01-06T04:07:52.421Z,5.20
2023-01-06T04:10:22.080Z,4.70
2023-01-06T04:12:50.362Z,5.72
2023-01-06T04:15:21.421Z,5.55
2023-01-06T04:17:50.480Z,5.78
2023-01-06T04:20:27.300Z,6.00
2023-01-06T04:22:55.935Z,5.87
2023-01-06T04:25:24.251Z,5.47
2023-01-06T04:27:52.324Z,5.90
2023-01-06T04:30:20.082Z,5.22
2023-01-06T04:32:47.784Z,5.20
2023-01-06T04:35:15.548Z,5.28
2023-01-06T04:37:43.287Z,5.95
2023-01-06T04:40:11.549Z,6.45
2023-01-06T04:42:57.955Z,6.60
2023-01-06T04:45:25.817Z,6.10
2023-01-06T04:47:53.499Z,6.40
2023-01-06T04:50:21.227Z,7.10
2023-01-06T04:52:48.966Z,6.43
2023-01-06T04:55:16.800Z,6.62
2023-01-06T04:57:44.530Z,6.35
2023-01-06T05:00:12.850Z,6.43
2023-01-06T05:02:40.691Z,5.75
2023-01-06T05:05:08.818Z,6.32
2023-01-06T05:07:36.557Z,6.30
2023-01-06T05:10:05.814Z,5.50
2023-01-06T05:12:34.152Z,5.78
2023-01-06T05:15:01.938Z,5.37
2023-01-06T05:17:29.722Z,6.07
2023-01-06T05:19:57.671Z,6.55
2023-01-06T05:22:25.350Z,5.90
2023-01-06T05:24:52.967Z,6.10
2023-01-06T05:27:20.637Z,5.25
2023-01-06T05:29:48.551Z,5.60
2023-01-06T05:32:16.350Z,6.28
2023-01-06T05:34:44.096Z,5.72
2023-01-06T05:37:11.758Z,5.43
2023-01-06T05:39:39.470Z,5.18
2023-01-06T05:42:07.157Z,4.72
2023-01-06T05:44:34.862Z,4.25
2023-01-06T05:47:02.674Z,4.20
2023-01-06T05:49:30.451Z,3.90
2023-01-06T05:51:58.184Z,4.72
2023-01-06T05:54:25.886Z,4.78
2023-01-06T05:56:53.627Z,4.20
2023-01-06T05:59:21.294Z,4.57
2023-01-06T06:01:49.136Z,4.72
2023-01-06T06:04:16.990Z,4.12
2023-01-06T06:06:44.617Z,4.10
2023-01-06T06:09:12.373Z,4.47
2023-01-06T06:11:40.096Z,4.15
2023-01-06T06:14:10.916Z,4.45
2023-01-06T06:16:38.754Z,4.37
2023-01-06T06:19:06.541Z,4.22
2023-01-06T06:21:34.296Z,4.35
2023-01-06T06:24:02.163Z,4.32
2023-01-06T06:26:29.913Z,4.15
2023-01-06T06:28:57.992Z,4.53
2023-01-06T06:31:29.453Z,3.65
2023-01-06T06:34:00.215Z,3.80
2023-01-06T06:36:29.508Z,3.92
2023-01-06T06:38:57.662Z,3.87
2023-01-06T06:41:26.756Z,4.03
2023-01-06T06:43:55.058Z,3.97
2023-01-06T06:46:23.049Z,3.72
2023-01-06T06:48:51.350Z,4.20
2023-01-06T06:51:22.072Z,4.25
2023-01-06T06:53:50.513Z,3.70
2023-01-06T06:56:20.173Z,3.78
2023-01-06T06:58:48.198Z,3.70
2023-01-06T07:01:19.492Z,4.12
2023-01-06T07:03:47.755Z,4.53
2023-01-06T07:06:22.281Z,3.72
2023-01-06T07:08:50.329Z,4.25
2023-01-06T07:11:18.890Z,4.78
2023-01-06T07:13:46.853Z,4.00
2023-01-06T07:16:14.794Z,4.57
2023-01-06T07:18:42.615Z,4.20
2023-01-06T07:21:10.533Z,4.75
2023-01-06T07:23:38.297Z,4.43
2023-01-06T07:26:06.198Z,4.00
2023-01-06T07:28:34.073Z,4.43
2023-01-06T07:31:02.572Z,4.68
2023-01-06T07:33:30.542Z,4.65
2023-01-06T07:35:58.789Z,4.93
2023-01-06T07:38:27.157Z,5.12
2023-01-06T07:40:59.990Z,4.78
2023-01-06T07:43:27.853Z,5.03
2023-01-06T07:45:55.683Z,4.72
2023-01-06T07:48:23.388Z,4.80
2023-01-06T07:50:51.070Z,3.97
2023-01-06T07:53:18.881Z,3.70
2023-01-06T07:55:56.517Z,4.32
2023-01-06T07:58:27.249Z,4.55
2023-01-06T08:00:55.126Z,4.50
2023-01-06T08:03:23.025Z,4.93
2023-01-06T08:05:51.085Z,4.93
2023-01-06T08:08:18.752Z,4.68
2023-01-06T08:10:46.547Z,4.45
2023-01-06T08:13:14.454Z,3.62
2023-01-06T08:15:42.335Z,4.47
2023-01-06T08:18:10.147Z,4.40
2023-01-06T08:20:37.931Z,4.68
2023-01-06T08:23:05.628Z,4.90
2023-01-06T08:25:33.439Z,4.60
2023-01-06T08:28:01.569Z,4.90
2023-01-06T08:30:29.369Z,4.12
2023-01-06T08:33:01.369Z,3.83
2023-01-06T08:35:29.534Z,3.97
2023-01-06T08:37:57.291Z,4.03
2023-01-06T08:40:25.220Z,4.70
2023-01-06T08:42:53.029Z,4.03
2023-01-06T08:45:20.730Z,4.22
2023-01-06T08:47:48.457Z,4.50
2023-01-06T08:50:16.156Z,6.18
2023-01-06T08:52:44.009Z,5.65
2023-01-06T08:55:11.832Z,4.50
2023-01-06T08:57:39.651Z,4.05
2023-01-06T09:00:08.661Z,4.35
2023-01-06T09:02:36.359Z,4.68
2023-01-06T09:05:04.459Z,4.32
2023-01-06T09:07:32.288Z,4.43
2023-01-06T09:10:00.013Z,4.40
2023-01-06T09:12:27.804Z,4.40
2023-01-06T09:14:55.550Z,4.18
2023-01-06T09:17:23.277Z,4.40
2023-01-06T09:19:50.982Z,4.35
2023-01-06T09:22:18.782Z,4.80
2023-01-06T09:24:46.467Z,4.72
2023-01-06T09:27:14.143Z,4.97
2023-01-06T09:29:41.892Z,4.78
2023-01-06T09:32:09.657Z,4.80
2023-01-06T09:34:37.374Z,5.12
2023-01-06T09:37:05.466Z,4.95
2023-01-06T09:39:33.248Z,5.50
2023-01-06T09:42:19.034Z,5.07
2023-01-06T09:44:54.663Z,4.50
2023-01-06T09:47:28.888Z,4.95
2023-01-06T09:50:10.869Z,4.40
2023-01-06T09:52:42.508Z,4.45
2023-01-06T09:55:36.023Z,4.28
2023-01-06T09:58:25.848Z,3.75
2023-01-06T10:00:56.658Z,3.83
2023-01-06T10:03:26.786Z,4.07
2023-01-06T10:06:08.561Z,3.78
2023-01-06T10:09:08.446Z,4.10
2023-01-06T10:12:00.424Z,4.07
2023-01-06T10:14:34.953Z,3.37
2023-01-06T10:17:41.167Z,3.72
2023-01-06T10:20:45.934Z,4.10
2023-01-06T10:23:32.359Z,4.00
2023-01-06T10:26:52.485Z,4.12
2023-01-06T10:29:21.607Z,4.25
2023-01-06T10:31:53.752Z,3.55
2023-01-06T10:34:25.284Z,3.53
2023-01-06T10:37:15.853Z,4.22
2023-01-06T10:39:46.978Z,3.92
2023-01-06T10:42:58.939Z,4.60
2023-01-06T10:45:34.997Z,4.03
2023-01-06T10:48:03.956Z,4.37
2023-01-06T10:50:31.990Z,4.78
2023-01-06T10:52:59.707Z,4.75
2023-01-06T10:55:27.372Z,4.28
2023-01-06T10:57:58.877Z,3.80
2023-01-06T11:00:27.053Z,4.10
2023-01-06T11:03:09.246Z,3.78
2023-01-06T11:05:42.353Z,3.40
2023-01-06T11:08:16.063Z,4.12
2023-01-06T11:10:55.354Z,3.85
2023-01-06T11:13:28.434Z,3.97
2023-01-06T11:15:57.340Z,3.42
2023-01-06T11:18:31.156Z,3.47
2023-01-06T11:21:06.925Z,3.22
2023-01-06T11:23:36.155Z,3.75
2023-01-06T11:26:21.868Z,2.97
2023-01-06T11:28:54.277Z,2.55
2023-01-06T11:31:27.005Z,3.58
2023-01-06T11:33:57.734Z,2.60
2023-01-06T11:36:28.406Z,3.55
2023-01-06T11:39:02.576Z,2.80
2023-01-06T11:41:40.291Z,2.87
2023-01-06T11:44:08.065Z,2.97
2023-01-06T11:46:38.255Z,2.78
2023-01-06T11:49:16.926Z,3.12
2023-01-06T11:51:44.884Z,3.45
2023-01-06T11:54:33.355Z,2.83
2023-01-06T11:57:10.118Z,3.60
2023-01-06T12:00:07.005Z,4.00
2023-01-06T12:02:50.950Z,3.97
2023-01-06T12:05:34.187Z,4.07
2023-01-06T12:08:07.527Z,4.18
2023-01-06T12:10:36.884Z,2.70
2023-01-06T12:13:04.698Z,2.40
2023-01-06T12:15:35.350Z,2.33
2023-01-06T12:18:14.651Z,2.10
2023-01-06T12:20:47.767Z,2.70
2023-01-06T12:23:24.398Z,1.62
2023-01-06T12:25:57.151Z,2.00
2023-01-06T12:28:40.941Z,2.37
2023-01-06T12:31:28.244Z,1.65
2023-01-06T12:34:06.703Z,1.58
2023-01-06T12:36:37.703Z,1.52
2023-01-06T12:39:11.985Z,1.90
2023-01-06T12:41:46.279Z,1.87
2023-01-06T12:44:38.683Z,1.60
2023-01-06T12:47:16.160Z,1.80
2023-01-06T12:49:51.505Z,1.52
2023-01-06T12:52:26.870Z,2.17
2023-01-06T12:54:58.552Z,2.30
2023-01-06T12:57:33.631Z,2.30
2023-01-06T13:00:32.699Z,2.03
2023-01-06T13:03:26.539Z,2.25
2023-01-06T13:06:19.840Z,1.73
2023-01-06T13:08:56.850Z,1.60
2023-01-06T13:11:47.630Z,1.62
2023-01-06T13:14:55.030Z,1.65
2023-01-06T13:17:32.386Z,1.35
2023-01-06T13:20:04.223Z,1.80
2023-01-06T13:22:50.660Z,2.10
2023-01-06T13:25:40.334Z,1.67
2023-01-06T13:28:38.547Z,1.55
2023-01-06T13:31:25.043Z,1.90
2023-01-06T13:34:01.479Z,1.50
2023-01-06T13:36:54.092Z,1.40
2023-01-06T13:39:27.329Z,1.62
2023-01-06T13:41:58.971Z,1.30
2023-01-06T13:44:30.765Z,1.20
2023-01-06T13:47:05.857Z,1.27
2023-01-06T13:49:35.180Z,1.80
2023-01-06T13:52:04.573Z,1.30
2023-01-06T13:54:41.003Z,1.25
2023-01-06T13:57:20.898Z,1.77
2023-01-06T14:00:06.309Z,1.20
2023-01-06T14:02:37.240Z,1.42
2023-01-06T14:05:17.572Z,1.60
2023-01-06T14:07:52.097Z,1.17
2023-01-06T14:10:44.279Z,1.67
2023-01-06T14:13:33.248Z,1.00
2023-01-06T14:16:13.448Z,1.35
2023-01-06T14:18:48.241Z,1.35
2023-01-06T14:21:25.509Z,0.98
2023-01-06T14:24:01.748Z,0.93
2023-01-06T14:26:51.721Z,1.20
2023-01-06T14:29:41.632Z,1.00
2023-01-06T14:32:15.584Z,1.20
2023-01-06T14:35:15.735Z,0.80
2023-01-06T14:38:01.788Z,0.90
2023-01-06T14:40:36.773Z,1.08
2023-01-06T14:43:27.380Z,0.70
2023-01-06T14:45:56.063Z,1.00
2023-01-06T14:48:27.005Z,1.00
2023-01-06T14:50:59.956Z,1.20
2023-01-06T14:53:38.732Z,0.85
2023-01-06T14:56:08.229Z,0.80
2023-01-06T14:58:40.423Z,1.00
2023-01-06T15:01:08.768Z,0.80
2023-01-06T15:03:37.711Z,0.70
2023-01-06T15:06:23.079Z,0.90
2023-01-06T15:08:51.046Z,0.62
2023-01-06T15:11:32.721Z,0.80
2023-01-06T15:14:00.541Z,0.62
2023-01-06T15:16:42.909Z,0.90
2023-01-06T15:19:15.638Z,0.90
2023-01-06T15:21:47.341Z,0.80
2023-01-06T15:24:26.987Z,0.77
2023-01-06T15:26:58.142Z,0.82
2023-01-06T15:29:27.620Z,1.10
2023-01-06T15:31:55.978Z,2.10
2023-01-06T15:34:35.093Z,2.60
2023-01-06T15:37:05.306Z,2.30
2023-01-06T15:39:35.151Z,1.62
2023-01-06T15:42:09.123Z,1.50
2023-01-06T15:44:40.153Z,1.35
2023-01-06T15:47:13.900Z,1.20
2023-01-06T15:49:43.968Z,1.20
2023-01-06T15:52:24.088Z,1.10
2023-01-06T15:54:53.696Z,1.23
2023-01-06T15:57:22.148Z,1.27
2023-01-06T16:00:04.167Z,1.00
2023-01-06T16:02:33.025Z,0.73
2023-01-06T16:05:01.853Z,1.08
2023-01-06T16:07:41.104Z,0.80
2023-01-06T16:10:38.287Z,1.20
2023-01-06T16:13:25.848Z,0.80
2023-01-06T16:16:03.379Z,1.10
2023-01-06T16:18:37.173Z,2.65
2023-01-06T16:21:23.219Z,3.00
2023-01-06T16:23:56.872Z,2.10
2023-01-06T16:26:47.834Z,2.40
2023-01-06T16:29:31.674Z,2.08
2023-01-06T16:32:01.376Z,1.92
2023-01-06T16:34:32.612Z,1.62
2023-01-06T16:37:01.821Z,1.70
2023-01-06T16:39:29.496Z,1.83
2023-01-06T16:42:00.285Z,1.48
2023-01-06T16:44:30.681Z,1.73
2023-01-06T16:47:03.188Z,2.70
2023-01-06T16:49:31.833Z,2.70
2023-01-06T16:52:00.442Z,1.92
2023-01-06T16:54:28.167Z,1.77
2023-01-06T16:56:56.007Z,1.65
2023-01-06T16:59:23.705Z,1.65
2023-01-06T17:01:51.458Z,1.20
2023-01-06T17:04:19.299Z,1.30
2023-01-06T17:06:47.189Z,1.30
2023-01-06T17:09:20.978Z,1.10
2023-01-06T17:11:49.911Z,1.73
2023-01-06T17:14:20.155Z,2.35
2023-01-06T17:16:48.573Z,2.20
2023-01-06T17:19:24.327Z,2.50
2023-01-06T17:21:56.896Z,2.45
2023-01-06T17:24:26.997Z,2.70
2023-01-06T17:27:26.510Z,2.10
2023-01-06T17:29:55.662Z,2.12
2023-01-06T17:32:39.442Z,2.60
2023-01-06T17:35:28.226Z,2.92
2023-01-06T17:38:00.082Z,2.75
2023-01-06T17:40:36.184Z,3.28
2023-01-06T17:43:15.792Z,2.65
2023-01-06T17:45:43.588Z,2.80
2023-01-06T17:48:14.320Z,3.15
2023-01-06T17:50:53.500Z,2.75
2023-01-06T17:53:49.627Z,2.85
2023-01-06T17:56:18.068Z,2.53
2023-01-06T17:58:46.603Z,2.80
2023-01-06T18:01:23.252Z,2.90
2023-01-06T18:03:52.099Z,3.65
2023-01-06T18:06:31.550Z,3.12
2023-01-06T18:09:10.856Z,3.30
2023-01-06T18:11:42.375Z,2.92
2023-01-06T18:14:18.935Z,3.60
2023-01-06T18:16:48.376Z,3.05
2023-01-06T18:19:28.357Z,3.15
2023-01-06T18:21:56.464Z,3.37
2023-01-06T18:24:24.213Z,4.47
2023-01-06T18:27:00.156Z,5.03
2023-01-06T18:29:36.966Z,5.05
2023-01-06T18:32:32.584Z,5.32
2023-01-06T18:35:22.667Z,4.53
2023-01-06T18:37:50.984Z,4.28
2023-01-06T18:40:22.089Z,5.72
2023-01-06T18:42:50.727Z,5.90
2023-01-06T18:45:37.160Z,5.35
2023-01-06T18:48:40.391Z,4.70
2023-01-06T18:51:19.432Z,4.00
2023-01-06T18:53:48.533Z,5.00
2023-01-06T18:56:17.714Z,5.60
2023-01-06T18:58:53.883Z,6.62
2023-01-06T19:01:33.598Z,5.10
2023-01-06T19:04:15.474Z,4.03
2023-01-06T19:06:46.713Z,4.07
2023-01-06T19:09:28.483Z,3.80
2023-01-06T19:12:21.784Z,3.97
2023-01-06T19:14:52.940Z,3.90
2023-01-06T19:17:23.509Z,4.20
2023-01-06T19:19:54.386Z,3.95
2023-01-06T19:22:30.207Z,4.00
2023-01-06T19:25:13.407Z,3.50
2023-01-06T19:27:46.539Z,4.12
2023-01-06T19:30:14.152Z,3.87
2023-01-06T19:32:42.021Z,4.18
2023-01-06T19:35:28.639Z,3.80
2023-01-06T19:38:02.331Z,3.17
2023-01-06T19:40:32.387Z,2.90
2023-01-06T19:43:15.454Z,3.10
2023-01-06T19:45:43.566Z,3.00
2023-01-06T19:48:21.547Z,3.83
2023-01-06T19:50:49.374Z,3.85
2023-01-06T19:53:40.087Z,3.45
2023-01-06T19:56:26.183Z,3.65
2023-01-06T19:59:18.916Z,3.72
2023-01-06T20:01:47.161Z,3.60
2023-01-06T20:04:22.508Z,3.30
2023-01-06T20:06:50.962Z,3.15
2023-01-06T20:09:18.961Z,3.47
2023-01-06T20:11:46.681Z,3.03
2023-01-06T20:14:14.673Z,3.05
2023-01-06T20:16:42.387Z,2.47
2023-01-06T20:19:10.474Z,2.67
2023-01-06T20:21:38.897Z,2.90
2023-01-06T20:24:08.006Z,2.75
2023-01-06T20:26:35.912Z,2.40
2023-01-06T20:29:05.747Z,2.67
2023-01-06T20:31:33.696Z,2.50
2023-01-06T20:34:01.722Z,2.35
2023-01-06T20:36:29.567Z,2.40
2023-01-06T20:38:57.695Z,3.05
2023-01-06T20:41:25.388Z,3.95
2023-01-06T20:43:53.107Z,2.78
2023-01-06T20:46:20.827Z,3.10
2023-01-06T20:48:49.018Z,3.03
2023-01-06T20:51:16.734Z,3.35
2023-01-06T20:53:44.515Z,3.22
2023-01-06T20:56:12.188Z,2.92
2023-01-06T20:58:39.931Z,3.37
2023-01-06T21:01:09.912Z,3.35
2023-01-06T21:03:39.023Z,2.75
2023-01-06T21:06:07.579Z,3.50
2023-01-06T21:08:35.354Z,2.92
2023-01-06T21:11:03.134Z,3.50
2023-01-06T21:13:30.809Z,2.87
2023-01-06T21:15:58.483Z,3.78
2023-01-06T21:18:26.196Z,3.58
2023-01-06T21:20:53.871Z,3.33
2023-01-06T21:23:21.529Z,3.45
2023-01-06T21:25:49.188Z,2.85
2023-01-06T21:28:16.815Z,3.00
2023-01-06T21:30:44.578Z,3.15
2023-01-06T21:33:12.305Z,2.90
2023-01-06T21:35:40.080Z,3.67
2023-01-06T21:38:07.948Z,3.05
2023-01-06T21:40:35.678Z,3.05
2023-01-06T21:43:12.674Z,3.30
2023-01-06T21:45:42.625Z,3.25
2023-01-06T21:48:11.969Z,2.67
2023-01-06T21:50:43.137Z,3.47
2023-01-06T21:53:12.046Z,3.10
2023-01-06T21:55:40.292Z,2.80
2023-01-06T21:58:08.171Z,3.35
2023-01-06T22:00:35.917Z,2.70
2023-01-06T22:03:03.812Z,3.50
2023-01-06T22:05:32.032Z,3.42
2023-01-06T22:08:00.860Z,3.15
2023-01-06T22:10:28.720Z,3.42
2023-01-06T22:12:58.011Z,3.78
2023-01-06T22:15:26.872Z,3.35
2023-01-06T22:17:57.570Z,3.20
2023-01-06T22:20:27.286Z,3.15
2023-01-06T22:22:55.232Z,3.50
2023-01-06T22:25:22.930Z,3.75
2023-01-06T22:27:50.678Z,3.67
2023-01-06T22:30:18.414Z,3.62
2023-01-06T22:32:48.218Z,3.70
2023-01-06T22:35:17.830Z,3.45
2023-01-06T22:37:46.100Z,3.85
2023-01-06T22:40:15.860Z,3.70
2023-01-06T22:42:44.516Z,3.87
2023-01-06T22:45:12.844Z,3.72
2023-01-06T22:47:40.914Z,4.07
2023-01-06T22:50:09.642Z,3.50
2023-01-06T22:52:37.508Z,4.00
2023-01-06T22:55:06.022Z,4.07
2023-01-06T22:57:33.699Z,4.47
2023-01-06T23:00:01.486Z,4.28
2023-01-06T23:02:29.329Z,4.60
2023-01-06T23:04:57.169Z,4.00
2023-01-06T23:07:24.885Z,3.62
2023-01-06T23:09:52.659Z,4.10
2023-01-06T23:12:20.327Z,4.10
2023-01-06T23:14:48.103Z,4.40
2023-01-06T23:17:15.894Z,4.03
2023-01-06T23:19:43.575Z,4.20
2023-01-06T23:22:11.377Z,4.30
2023-01-06T23:24:39.140Z,3.65
2023-01-06T23:27:06.928Z,3.80
2023-01-06T23:29:34.917Z,3.80
2023-01-06T23:32:02.736Z,3.47
2023-01-06T23:34:30.577Z,3.92
2023-01-06T23:36:58.608Z,4.40
2023-01-06T23:39:26.768Z,4.03
2023-01-06T23:41:55.679Z,3.95
2023-01-06T23:44:23.359Z,4.07
2023-01-06T23:46:51.196Z,3.67
2023-01-06T23:49:19.106Z,3.97
2023-01-06T23:51:46.813Z,3.78
2023-01-06T23:54:15.030Z,4.00
2023-01-06T23:56:42.789Z,3.92
2023-01-06T23:59:13.405Z,4.15
